Date,TemperatureHighF,TemperatureAvgF,TemperatureLowF,DewpointHighF,DewpointAvgF,DewpointLowF,HumidityHigh,HumidityAvg,HumidityLow,PressureMaxIn,PressureMinIn,WindSpeedMaxMPH,WindSpeedAvgMPH,GustSpeedMaxMPH,PrecipitationSumIn
2013-3-1,33.7,31.8,27.2,27.4,25.0,20.3,83,76,67,29.91,29.77,12,1,12,0.00
2013-3-2,30.1,26.8,24.2,21.3,19.2,17.5,80,73,65,29.91,29.83,13,1,13,0.00
2013-3-3,30.6,26.5,23.4,18.6,17.4,15.4,75,69,58,29.98,29.86,20,1,20,0.00
2013-3-4,35.7,27.7,20.3,19.2,15.6,11.2,75,61,45,30.09,29.98,15,1,15,0.00
2013-3-5,48.3,37.1,28.9,30.7,21.8,17.2,95,55,37,30.07,29.69,22,2,22,0.00
2013-3-6,33.2,31.0,28.4,31.7,29.0,26.5,94,92,85,30.08,29.65,18,3,18,0.01
2013-3-7,36.6,33.7,32.0,30.1,28.3,26.3,86,80,70,30.22,30.07,14,1,14,0.36
2013-3-8,36.4,31.0,28.4,28.4,25.0,23.1,85,78,69,30.38,30.20,16,2,16,0.07
2013-3-9,48.4,36.2,25.2,31.4,25.5,18.6,90,67,35,30.41,30.25,8,0,8,0.23
2013-3-10,58.0,45.3,33.0,33.8,29.1,22.7,75,54,37,30.26,30.07,20,2,20,0.00
2013-3-11,55.5,49.8,45.0,47.7,33.1,27.9,80,53,41,30.08,29.73,24,2,24,0.00
2013-3-12,54.2,44.0,35.4,49.7,38.8,27.8,94,82,68,29.98,29.67,19,2,19,0.31
2013-3-13,42.4,32.7,27.1,29.8,24.8,18.0,85,73,50,30.09,29.90,25,2,25,0.01
2013-3-14,38.4,30.3,23.9,21.6,18.2,14.8,72,61,50,30.21,30.08,27,2,27,0.00
2013-3-15,52.8,40.0,28.5,36.2,27.0,17.4,70,60,48,30.12,29.79,16,1,16,0.00
2013-3-16,54.6,45.0,40.4,46.6,39.4,33.9,92,81,70,29.86,29.58,13,1,13,0.02
2013-3-17,42.1,35.5,31.5,38.9,30.0,25.5,92,80,73,30.19,29.85,15,3,15,0.00
2013-3-18,33.8,30.6,28.3,32.0,28.3,26.2,93,91,81,30.21,29.82,23,1,23,0.11
2013-3-19,47.6,37.6,31.1,34.8,27.0,15.6,95,69,39,29.94,29.73,25,3,25,0.42
2013-3-20,47.1,34.9,27.4,28.6,19.9,13.8,89,56,35,29.98,29.76,25,2,25,0.00
2013-3-21,28.8,24.2,21.0,23.4,14.9,10.2,83,68,51,29.94,29.78,20,1,20,0.01
2013-3-22,40.1,29.7,21.2,21.1,16.9,12.1,72,60,44,30.01,29.91,10,1,15,0.00
2013-3-23,48.2,34.7,27.0,24.5,19.9,16.8,69,56,34,30.03,29.91,12,1,16,0.00
2013-3-24,38.4,30.9,28.0,27.7,23.4,19.8,94,75,50,29.95,29.56,10,0,10,0.00
2013-3-25,37.4,31.4,27.9,34.9,29.2,26.4,95,91,83,29.70,29.50,5,0,5,0.22
2013-3-26,38.9,32.1,30.4,30.4,28.4,25.6,92,86,64,30.04,29.70,14,1,14,0.33
2013-3-27,36.7,33.0,29.8,29.1,27.1,24.7,84,79,69,30.12,30.03,15,1,15,0.06
2013-3-28,40.1,35.0,31.8,30.7,28.0,25.9,83,75,65,30.25,30.10,8,1,16,0.03
2013-3-29,48.9,38.3,34.6,35.1,29.4,25.5,78,71,48,30.26,30.12,14,0,14,0.01
2013-3-30,54.6,41.2,33.8,33.0,27.4,23.3,75,59,32,30.21,30.02,12,0,12,0.00
2013-3-31,45.9,41.9,37.3,44.7,36.3,23.3,96,83,43,30.02,29.71,13,0,13,0.35